sensor_id;sensor_type;location;lat;lon;timestamp;P1;durP1;ratioP1;P2;durP2;ratioP2
146;SDS011;45999;48.808;9.182;2023-02-15T00:01:39;31.47;;;22.83;;
146;SDS011;45999;48.808;9.182;2023-02-15T00:04:06;28.07;;;21.23;;
146;SDS011;45999;48.808;9.182;2023-02-15T00:06:34;29.77;;;21.63;;
146;SDS011;45999;48.808;9.182;2023-02-15T00:09:01;29.43;;;20.87;;
146;SDS011;45999;48.808;9.182;2023-02-15T00:11:28;31.60;;;22.03;;
146;SDS011;45999;48.808;9.182;2023-02-15T00:14:11;32.07;;;23.17;;
146;SDS011;45999;48.808;9.182;2023-02-15T00:16:40;29.53;;;21.03;;
146;SDS011;45999;48.808;9.182;2023-02-15T00:19:07;32.80;;;23.20;;
146;SDS011;45999;48.808;9.182;2023-02-15T00:21:35;31.90;;;22.50;;
146;SDS011;45999;48.808;9.182;2023-02-15T00:24:03;27.47;;;20.60;;
146;SDS011;45999;48.808;9.182;2023-02-15T00:26:31;32.47;;;22.50;;
146;SDS011;45999;48.808;9.182;2023-02-15T00:28:58;30.10;;;23.00;;
146;SDS011;45999;48.808;9.182;2023-02-15T00:31:26;33.30;;;23.93;;
146;SDS011;45999;48.808;9.182;2023-02-15T00:33:55;33.57;;;23.73;;
146;SDS011;45999;48.808;9.182;2023-02-15T00:36:21;31.53;;;22.60;;
146;SDS011;45999;48.808;9.182;2023-02-15T00:38:48;29.90;;;22.87;;
146;SDS011;45999;48.808;9.182;2023-02-15T00:41:14;33.70;;;22.73;;
146;SDS011;45999;48.808;9.182;2023-02-15T00:43:41;29.93;;;21.60;;
146;SDS011;45999;48.808;9.182;2023-02-15T00:46:08;30.07;;;21.53;;
146;SDS011;45999;48.808;9.182;2023-02-15T00:48:34;29.43;;;21.80;;
146;SDS011;45999;48.808;9.182;2023-02-15T00:51:00;30.13;;;21.63;;
146;SDS011;45999;48.808;9.182;2023-02-15T00:53:27;28.13;;;21.03;;
146;SDS011;45999;48.808;9.182;2023-02-15T00:55:56;29.90;;;20.67;;
146;SDS011;45999;48.808;9.182;2023-02-15T00:58:23;29.33;;;21.27;;
146;SDS011;45999;48.808;9.182;2023-02-15T01:00:50;27.83;;;20.37;;
146;SDS011;45999;48.808;9.182;2023-02-15T01:03:17;27.37;;;20.40;;
146;SDS011;45999;48.808;9.182;2023-02-15T01:05:46;27.97;;;20.60;;
146;SDS011;45999;48.808;9.182;2023-02-15T01:08:13;31.30;;;19.57;;
146;SDS011;45999;48.808;9.182;2023-02-15T01:10:40;28.37;;;21.37;;
146;SDS011;45999;48.808;9.182;2023-02-15T01:13:08;29.97;;;19.97;;
146;SDS011;45999;48.808;9.182;2023-02-15T01:15:35;30.03;;;20.40;;
146;SDS011;45999;48.808;9.182;2023-02-15T01:18:02;31.80;;;21.70;;
146;SDS011;45999;48.808;9.182;2023-02-15T01:20:29;27.53;;;20.27;;
146;SDS011;45999;48.808;9.182;2023-02-15T01:22:57;28.27;;;20.73;;
146;SDS011;45999;48.808;9.182;2023-02-15T01:25:24;27.00;;;19.23;;
146;SDS011;45999;48.808;9.182;2023-02-15T01:27:50;28.60;;;20.40;;
146;SDS011;45999;48.808;9.182;2023-02-15T01:30:17;26.90;;;19.20;;
146;SDS011;45999;48.808;9.182;2023-02-15T01:32:43;27.47;;;19.47;;
146;SDS011;45999;48.808;9.182;2023-02-15T01:35:10;28.37;;;20.70;;
146;SDS011;45999;48.808;9.182;2023-02-15T01:37:37;27.97;;;19.87;;
146;SDS011;45999;48.808;9.182;2023-02-15T01:40:06;28.53;;;20.50;;
146;SDS011;45999;48.808;9.182;2023-02-15T01:42:35;25.83;;;20.17;;
146;SDS011;45999;48.808;9.182;2023-02-15T01:45:44;24.00;;;18.70;;
146;SDS011;45999;48.808;9.182;2023-02-15T01:50:50;28.93;;;19.27;;
146;SDS011;45999;48.808;9.182;2023-02-15T01:53:25;28.50;;;19.53;;
146;SDS011;45999;48.808;9.182;2023-02-15T01:56:00;25.53;;;18.77;;
146;SDS011;45999;48.808;9.182;2023-02-15T01:58:31;25.33;;;18.93;;
146;SDS011;45999;48.808;9.182;2023-02-15T02:01:00;29.47;;;19.90;;
146;SDS011;45999;48.808;9.182;2023-02-15T02:06:20;24.03;;;18.10;;
146;SDS011;45999;48.808;9.182;2023-02-15T02:08:47;24.47;;;18.77;;
146;SDS011;45999;48.808;9.182;2023-02-15T02:11:14;26.53;;;19.33;;
146;SDS011;45999;48.808;9.182;2023-02-15T02:13:42;27.30;;;19.43;;
146;SDS011;45999;48.808;9.182;2023-02-15T02:27:23;28.50;;;19.90;;
146;SDS011;45999;48.808;9.182;2023-02-15T02:30:13;28.43;;;19.47;;
146;SDS011;45999;48.808;9.182;2023-02-15T02:40:43;25.30;;;19.50;;
146;SDS011;45999;48.808;9.182;2023-02-15T02:46:13;27.90;;;20.23;;
146;SDS011;45999;48.808;9.182;2023-02-15T02:48:54;31.67;;;21.00;;
146;SDS011;45999;48.808;9.182;2023-02-15T02:51:21;25.37;;;19.87;;
146;SDS011;45999;48.808;9.182;2023-02-15T02:53:50;29.93;;;20.93;;
146;SDS011;45999;48.808;9.182;2023-02-15T02:56:24;27.97;;;19.97;;
146;SDS011;45999;48.808;9.182;2023-02-15T02:59:00;28.97;;;19.93;;
146;SDS011;45999;48.808;9.182;2023-02-15T03:01:33;27.47;;;20.07;;
146;SDS011;45999;48.808;9.182;2023-02-15T03:04:07;29.23;;;19.53;;
146;SDS011;45999;48.808;9.182;2023-02-15T03:09:28;28.97;;;19.43;;
146;SDS011;45999;48.808;9.182;2023-02-15T03:12:16;27.50;;;19.53;;
146;SDS011;45999;48.808;9.182;2023-02-15T03:14:47;27.40;;;19.63;;
146;SDS011;45999;48.808;9.182;2023-02-15T03:17:18;25.67;;;18.70;;
146;SDS011;45999;48.808;9.182;2023-02-15T03:19:48;28.30;;;19.30;;
146;SDS011;45999;48.808;9.182;2023-02-15T03:22:19;27.03;;;19.57;;
146;SDS011;45999;48.808;9.182;2023-02-15T03:24:59;24.50;;;19.27;;
146;SDS011;45999;48.808;9.182;2023-02-15T03:27:45;28.27;;;18.73;;
146;SDS011;45999;48.808;9.182;2023-02-15T03:30:15;30.87;;;19.97;;
146;SDS011;45999;48.808;9.182;2023-02-15T03:32:44;30.43;;;19.80;;
146;SDS011;45999;48.808;9.182;2023-02-15T03:35:12;22.60;;;17.27;;
146;SDS011;45999;48.808;9.182;2023-02-15T03:37:40;24.60;;;18.97;;
146;SDS011;45999;48.808;9.182;2023-02-15T03:40:19;25.93;;;18.23;;
146;SDS011;45999;48.808;9.182;2023-02-15T03:43:14;23.90;;;17.83;;
146;SDS011;45999;48.808;9.182;2023-02-15T03:45:48;23.80;;;17.50;;
146;SDS011;45999;48.808;9.182;2023-02-15T03:48:27;25.60;;;19.20;;
146;SDS011;45999;48.808;9.182;2023-02-15T03:51:01;26.83;;;19.43;;
146;SDS011;45999;48.808;9.182;2023-02-15T03:53:49;27.03;;;18.93;;
146;SDS011;45999;48.808;9.182;2023-02-15T03:56:18;28.03;;;19.33;;
146;SDS011;45999;48.808;9.182;2023-02-15T03:58:44;30.77;;;20.50;;
146;SDS011;45999;48.808;9.182;2023-02-15T04:01:44;28.90;;;19.47;;
146;SDS011;45999;48.808;9.182;2023-02-15T04:04:32;24.37;;;17.77;;
146;SDS011;45999;48.808;9.182;2023-02-15T04:07:04;23.97;;;16.50;;
146;SDS011;45999;48.808;9.182;2023-02-15T04:09:32;24.40;;;17.63;;
146;SDS011;45999;48.808;9.182;2023-02-15T04:12:16;29.43;;;19.80;;
146;SDS011;45999;48.808;9.182;2023-02-15T04:14:42;28.03;;;18.27;;
146;SDS011;45999;48.808;9.182;2023-02-15T04:17:26;27.17;;;19.07;;
146;SDS011;45999;48.808;9.182;2023-02-15T04:19:53;27.87;;;19.73;;
146;SDS011;45999;48.808;9.182;2023-02-15T04:22:37;29.47;;;19.70;;
146;SDS011;45999;48.808;9.182;2023-02-15T04:25:21;26.27;;;18.03;;
146;SDS011;45999;48.808;9.182;2023-02-15T04:27:48;29.67;;;19.73;;
146;SDS011;45999;48.808;9.182;2023-02-15T04:30:16;33.07;;;21.90;;
146;SDS011;45999;48.808;9.182;2023-02-15T04:32:44;28.70;;;19.33;;
146;SDS011;45999;48.808;9.182;2023-02-15T04:35:11;30.67;;;21.27;;
146;SDS011;45999;48.808;9.182;2023-02-15T04:37:39;32.17;;;20.50;;
146;SDS011;45999;48.808;9.182;2023-02-15T04:40:08;30.20;;;21.03;;
146;SDS011;45999;48.808;9.182;2023-02-15T04:42:36;30.80;;;20.87;;
146;SDS011;45999;48.808;9.182;2023-02-15T04:45:02;30.30;;;20.53;;
146;SDS011;45999;48.808;9.182;2023-02-15T04:47:29;29.97;;;21.33;;
146;SDS011;45999;48.808;9.182;2023-02-15T04:49:55;28.53;;;20.47;;
146;SDS011;45999;48.808;9.182;2023-02-15T04:52:22;29.80;;;20.27;;
146;SDS011;45999;48.808;9.182;2023-02-15T04:54:48;29.80;;;19.60;;
146;SDS011;45999;48.808;9.182;2023-02-15T04:57:15;29.97;;;20.53;;
146;SDS011;45999;48.808;9.182;2023-02-15T04:59:41;32.03;;;20.87;;
146;SDS011;45999;48.808;9.182;2023-02-15T05:02:07;28.43;;;19.27;;
146;SDS011;45999;48.808;9.182;2023-02-15T05:04:34;31.90;;;20.57;;
146;SDS011;45999;48.808;9.182;2023-02-15T05:07:00;29.67;;;19.47;;
146;SDS011;45999;48.808;9.182;2023-02-15T05:09:26;28.20;;;19.60;;
146;SDS011;45999;48.808;9.182;2023-02-15T05:11:53;29.43;;;19.50;;
146;SDS011;45999;48.808;9.182;2023-02-15T05:14:19;28.43;;;19.67;;
146;SDS011;45999;48.808;9.182;2023-02-15T05:16:45;29.73;;;19.23;;
146;SDS011;45999;48.808;9.182;2023-02-15T05:19:12;26.80;;;18.77;;
146;SDS011;45999;48.808;9.182;2023-02-15T05:21:38;36.70;;;21.87;;
146;SDS011;45999;48.808;9.182;2023-02-15T05:24:04;35.97;;;22.83;;
146;SDS011;45999;48.808;9.182;2023-02-15T05:26:52;35.27;;;21.50;;
146;SDS011;45999;48.808;9.182;2023-02-15T05:29:36;35.80;;;21.97;;
146;SDS011;45999;48.808;9.182;2023-02-15T05:32:02;39.93;;;23.00;;
146;SDS011;45999;48.808;9.182;2023-02-15T05:34:29;39.60;;;23.93;;
146;SDS011;45999;48.808;9.182;2023-02-15T05:36:56;40.57;;;23.27;;
146;SDS011;45999;48.808;9.182;2023-02-15T05:39:22;57.90;;;23.37;;
146;SDS011;45999;48.808;9.182;2023-02-15T05:41:49;115.67;;;25.53;;
146;SDS011;45999;48.808;9.182;2023-02-15T05:44:15;201.53;;;29.60;;
146;SDS011;45999;48.808;9.182;2023-02-15T05:46:41;64.33;;;25.17;;
146;SDS011;45999;48.808;9.182;2023-02-15T05:49:08;43.73;;;23.27;;
146;SDS011;45999;48.808;9.182;2023-02-15T05:51:34;56.33;;;24.63;;
146;SDS011;45999;48.808;9.182;2023-02-15T05:54:00;66.00;;;24.83;;
146;SDS011;45999;48.808;9.182;2023-02-15T05:56:27;77.60;;;25.30;;
146;SDS011;45999;48.808;9.182;2023-02-15T05:58:53;69.13;;;23.77;;
146;SDS011;45999;48.808;9.182;2023-02-15T06:01:20;46.20;;;23.47;;
146;SDS011;45999;48.808;9.182;2023-02-15T06:03:47;34.93;;;22.07;;
146;SDS011;45999;48.808;9.182;2023-02-15T06:06:14;33.27;;;21.77;;
146;SDS011;45999;48.808;9.182;2023-02-15T06:08:40;41.23;;;23.50;;
146;SDS011;45999;48.808;9.182;2023-02-15T06:11:07;35.30;;;21.57;;
146;SDS011;45999;48.808;9.182;2023-02-15T06:13:34;35.73;;;21.57;;
146;SDS011;45999;48.808;9.182;2023-02-15T06:16:01;37.60;;;23.17;;
146;SDS011;45999;48.808;9.182;2023-02-15T06:18:27;33.97;;;22.10;;
146;SDS011;45999;48.808;9.182;2023-02-15T06:20:53;30.00;;;19.33;;
146;SDS011;45999;48.808;9.182;2023-02-15T06:23:20;31.83;;;19.67;;
146;SDS011;45999;48.808;9.182;2023-02-15T06:25:46;36.80;;;22.53;;
146;SDS011;45999;48.808;9.182;2023-02-15T06:28:13;32.17;;;21.07;;
146;SDS011;45999;48.808;9.182;2023-02-15T06:30:39;36.30;;;22.87;;
146;SDS011;45999;48.808;9.182;2023-02-15T06:33:06;37.20;;;22.60;;
146;SDS011;45999;48.808;9.182;2023-02-15T06:35:32;33.87;;;20.87;;
146;SDS011;45999;48.808;9.182;2023-02-15T06:37:58;37.37;;;21.27;;
146;SDS011;45999;48.808;9.182;2023-02-15T06:40:25;33.57;;;21.80;;
146;SDS011;45999;48.808;9.182;2023-02-15T06:42:51;33.83;;;22.20;;
146;SDS011;45999;48.808;9.182;2023-02-15T06:45:18;36.97;;;22.07;;
146;SDS011;45999;48.808;9.182;2023-02-15T06:47:44;33.17;;;20.83;;
146;SDS011;45999;48.808;9.182;2023-02-15T06:50:10;29.03;;;19.27;;
146;SDS011;45999;48.808;9.182;2023-02-15T06:52:37;28.63;;;19.70;;
146;SDS011;45999;48.808;9.182;2023-02-15T06:55:03;29.03;;;18.17;;
146;SDS011;45999;48.808;9.182;2023-02-15T06:57:30;25.87;;;17.80;;
146;SDS011;45999;48.808;9.182;2023-02-15T06:59:58;29.93;;;17.77;;
146;SDS011;45999;48.808;9.182;2023-02-15T07:02:24;27.63;;;18.20;;
146;SDS011;45999;48.808;9.182;2023-02-15T07:04:51;28.10;;;18.20;;
146;SDS011;45999;48.808;9.182;2023-02-15T07:07:17;27.43;;;17.50;;
146;SDS011;45999;48.808;9.182;2023-02-15T07:09:44;25.83;;;17.87;;
146;SDS011;45999;48.808;9.182;2023-02-15T07:12:10;28.63;;;17.77;;
146;SDS011;45999;48.808;9.182;2023-02-15T07:14:54;26.43;;;16.77;;
146;SDS011;45999;48.808;9.182;2023-02-15T07:17:20;26.77;;;19.13;;
146;SDS011;45999;48.808;9.182;2023-02-15T07:19:47;26.67;;;17.70;;
146;SDS011;45999;48.808;9.182;2023-02-15T07:22:13;28.10;;;18.07;;
146;SDS011;45999;48.808;9.182;2023-02-15T07:24:39;26.47;;;18.30;;
146;SDS011;45999;48.808;9.182;2023-02-15T07:27:06;27.77;;;19.23;;
146;SDS011;45999;48.808;9.182;2023-02-15T07:29:33;25.07;;;17.77;;
146;SDS011;45999;48.808;9.182;2023-02-15T07:31:59;25.23;;;18.00;;
146;SDS011;45999;48.808;9.182;2023-02-15T07:34:26;25.20;;;16.37;;
146;SDS011;45999;48.808;9.182;2023-02-15T07:36:52;27.53;;;18.87;;
146;SDS011;45999;48.808;9.182;2023-02-15T07:39:19;26.60;;;18.63;;
146;SDS011;45999;48.808;9.182;2023-02-15T07:41:45;31.73;;;20.40;;
146;SDS011;45999;48.808;9.182;2023-02-15T07:44:12;32.77;;;20.13;;
146;SDS011;45999;48.808;9.182;2023-02-15T07:46:39;29.90;;;19.17;;
146;SDS011;45999;48.808;9.182;2023-02-15T07:49:06;30.07;;;19.43;;
146;SDS011;45999;48.808;9.182;2023-02-15T07:51:33;26.43;;;18.27;;
146;SDS011;45999;48.808;9.182;2023-02-15T07:53:59;30.33;;;19.97;;
146;SDS011;45999;48.808;9.182;2023-02-15T07:56:26;30.67;;;19.10;;
146;SDS011;45999;48.808;9.182;2023-02-15T07:58:52;27.23;;;17.60;;
146;SDS011;45999;48.808;9.182;2023-02-15T08:01:21;26.00;;;17.53;;
146;SDS011;45999;48.808;9.182;2023-02-15T08:03:48;22.20;;;16.43;;
146;SDS011;45999;48.808;9.182;2023-02-15T08:06:15;24.73;;;17.23;;
146;SDS011;45999;48.808;9.182;2023-02-15T08:08:41;24.37;;;17.77;;
146;SDS011;45999;48.808;9.182;2023-02-15T08:14:19;33.30;;;21.63;;
146;SDS011;45999;48.808;9.182;2023-02-15T08:16:50;40.00;;;23.37;;
146;SDS011;45999;48.808;9.182;2023-02-15T08:19:21;35.43;;;22.67;;
146;SDS011;45999;48.808;9.182;2023-02-15T08:21:53;34.43;;;21.93;;
146;SDS011;45999;48.808;9.182;2023-02-15T08:24:31;35.80;;;22.40;;
146;SDS011;45999;48.808;9.182;2023-02-15T08:27:02;33.43;;;20.80;;
146;SDS011;45999;48.808;9.182;2023-02-15T08:29:30;30.87;;;21.43;;
146;SDS011;45999;48.808;9.182;2023-02-15T08:31:58;29.87;;;20.60;;
146;SDS011;45999;48.808;9.182;2023-02-15T08:34:28;30.43;;;20.33;;
146;SDS011;45999;48.808;9.182;2023-02-15T08:36:56;33.87;;;21.97;;
146;SDS011;45999;48.808;9.182;2023-02-15T08:39:22;30.87;;;21.13;;
146;SDS011;45999;48.808;9.182;2023-02-15T08:41:49;32.47;;;22.07;;
146;SDS011;45999;48.808;9.182;2023-02-15T08:44:16;33.17;;;21.70;;
146;SDS011;45999;48.808;9.182;2023-02-15T08:46:44;31.93;;;21.50;;
146;SDS011;45999;48.808;9.182;2023-02-15T08:49:13;34.53;;;21.50;;
146;SDS011;45999;48.808;9.182;2023-02-15T08:51:42;36.03;;;22.00;;
146;SDS011;45999;48.808;9.182;2023-02-15T08:54:11;30.93;;;21.43;;
146;SDS011;45999;48.808;9.182;2023-02-15T08:56:39;29.50;;;20.40;;
146;SDS011;45999;48.808;9.182;2023-02-15T08:59:10;29.33;;;20.37;;
146;SDS011;45999;48.808;9.182;2023-02-15T09:01:45;33.03;;;20.97;;
146;SDS011;45999;48.808;9.182;2023-02-15T09:04:12;25.93;;;19.70;;
146;SDS011;45999;48.808;9.182;2023-02-15T09:06:40;30.50;;;19.83;;
146;SDS011;45999;48.808;9.182;2023-02-15T09:09:08;27.37;;;19.90;;
146;SDS011;45999;48.808;9.182;2023-02-15T09:11:37;32.50;;;20.07;;
146;SDS011;45999;48.808;9.182;2023-02-15T09:14:06;28.00;;;19.80;;
146;SDS011;45999;48.808;9.182;2023-02-15T09:16:39;27.67;;;20.10;;
146;SDS011;45999;48.808;9.182;2023-02-15T09:19:06;32.53;;;20.80;;
146;SDS011;45999;48.808;9.182;2023-02-15T09:21:33;29.10;;;20.50;;
146;SDS011;45999;48.808;9.182;2023-02-15T09:24:04;29.63;;;20.93;;
146;SDS011;45999;48.808;9.182;2023-02-15T09:26:33;30.30;;;20.43;;
146;SDS011;45999;48.808;9.182;2023-02-15T09:29:02;31.60;;;21.13;;
146;SDS011;45999;48.808;9.182;2023-02-15T09:31:29;31.00;;;20.77;;
146;SDS011;45999;48.808;9.182;2023-02-15T09:33:58;26.87;;;20.13;;
146;SDS011;45999;48.808;9.182;2023-02-15T09:36:28;30.10;;;21.27;;
146;SDS011;45999;48.808;9.182;2023-02-15T09:39:01;31.77;;;19.87;;
146;SDS011;45999;48.808;9.182;2023-02-15T09:58:19;33.83;;;22.37;;
146;SDS011;45999;48.808;9.182;2023-02-15T10:06:58;25.03;;;19.00;;
146;SDS011;45999;48.808;9.182;2023-02-15T10:09:33;24.37;;;19.03;;
146;SDS011;45999;48.808;9.182;2023-02-15T10:21:00;22.57;;;17.40;;
146;SDS011;45999;48.808;9.182;2023-02-15T10:26:43;25.33;;;18.20;;
146;SDS011;45999;48.808;9.182;2023-02-15T10:29:19;24.00;;;18.40;;
146;SDS011;45999;48.808;9.182;2023-02-15T10:32:41;27.00;;;18.33;;
146;SDS011;45999;48.808;9.182;2023-02-15T11:02:25;25.23;;;17.43;;
146;SDS011;45999;48.808;9.182;2023-02-15T11:07:44;23.80;;;17.00;;
146;SDS011;45999;48.808;9.182;2023-02-15T11:10:32;25.80;;;17.50;;
146;SDS011;45999;48.808;9.182;2023-02-15T11:13:15;25.17;;;17.47;;
146;SDS011;45999;48.808;9.182;2023-02-15T11:18:14;27.70;;;19.73;;
146;SDS011;45999;48.808;9.182;2023-02-15T11:23:18;26.40;;;19.63;;
146;SDS011;45999;48.808;9.182;2023-02-15T11:26:00;25.17;;;18.07;;
146;SDS011;45999;48.808;9.182;2023-02-15T11:28:31;25.30;;;19.23;;
146;SDS011;45999;48.808;9.182;2023-02-15T11:31:11;28.57;;;20.07;;
146;SDS011;45999;48.808;9.182;2023-02-15T11:33:43;25.57;;;18.33;;
146;SDS011;45999;48.808;9.182;2023-02-15T11:36:18;25.77;;;19.10;;
146;SDS011;45999;48.808;9.182;2023-02-15T11:38:49;23.97;;;18.67;;
146;SDS011;45999;48.808;9.182;2023-02-15T11:41:23;25.40;;;19.63;;
146;SDS011;45999;48.808;9.182;2023-02-15T11:43:54;24.93;;;19.67;;
146;SDS011;45999;48.808;9.182;2023-02-15T11:46:26;23.17;;;17.97;;
146;SDS011;45999;48.808;9.182;2023-02-15T11:48:53;29.00;;;18.70;;
146;SDS011;45999;48.808;9.182;2023-02-15T11:51:20;25.37;;;18.40;;
146;SDS011;45999;48.808;9.182;2023-02-15T11:53:48;24.57;;;19.10;;
146;SDS011;45999;48.808;9.182;2023-02-15T11:56:16;23.60;;;18.57;;
146;SDS011;45999;48.808;9.182;2023-02-15T11:58:50;22.70;;;18.43;;
146;SDS011;45999;48.808;9.182;2023-02-15T12:03:51;25.27;;;18.60;;
146;SDS011;45999;48.808;9.182;2023-02-15T12:06:24;25.23;;;19.40;;
146;SDS011;45999;48.808;9.182;2023-02-15T12:11:27;26.13;;;19.53;;
146;SDS011;45999;48.808;9.182;2023-02-15T12:14:03;23.00;;;18.90;;
146;SDS011;45999;48.808;9.182;2023-02-15T12:16:40;23.73;;;17.77;;
146;SDS011;45999;48.808;9.182;2023-02-15T12:19:13;23.83;;;18.70;;
146;SDS011;45999;48.808;9.182;2023-02-15T12:21:48;24.23;;;18.47;;
146;SDS011;45999;48.808;9.182;2023-02-15T12:24:21;27.73;;;21.53;;
146;SDS011;45999;48.808;9.182;2023-02-15T12:26:57;22.87;;;19.63;;
146;SDS011;45999;48.808;9.182;2023-02-15T12:29:29;20.93;;;17.90;;
146;SDS011;45999;48.808;9.182;2023-02-15T12:32:00;22.33;;;18.27;;
146;SDS011;45999;48.808;9.182;2023-02-15T12:34:29;23.07;;;19.57;;
146;SDS011;45999;48.808;9.182;2023-02-15T12:37:02;24.57;;;19.63;;
146;SDS011;45999;48.808;9.182;2023-02-15T12:39:35;21.13;;;17.80;;
146;SDS011;45999;48.808;9.182;2023-02-15T12:42:14;22.47;;;17.73;;
146;SDS011;45999;48.808;9.182;2023-02-15T12:44:57;24.27;;;19.40;;
146;SDS011;45999;48.808;9.182;2023-02-15T12:47:27;28.97;;;19.70;;
146;SDS011;45999;48.808;9.182;2023-02-15T12:50:05;24.97;;;19.60;;
146;SDS011;45999;48.808;9.182;2023-02-15T12:52:41;28.17;;;20.23;;
146;SDS011;45999;48.808;9.182;2023-02-15T12:57:49;25.90;;;19.63;;
146;SDS011;45999;48.808;9.182;2023-02-15T13:00:30;26.77;;;19.67;;
146;SDS011;45999;48.808;9.182;2023-02-15T13:02:57;26.30;;;20.43;;
146;SDS011;45999;48.808;9.182;2023-02-15T13:08:10;25.10;;;19.13;;
146;SDS011;45999;48.808;9.182;2023-02-15T13:10:41;27.33;;;20.67;;
146;SDS011;45999;48.808;9.182;2023-02-15T13:13:19;25.40;;;20.00;;
146;SDS011;45999;48.808;9.182;2023-02-15T13:15:49;23.03;;;19.10;;
146;SDS011;45999;48.808;9.182;2023-02-15T13:18:28;26.07;;;20.03;;
146;SDS011;45999;48.808;9.182;2023-02-15T13:20:58;31.53;;;21.20;;
146;SDS011;45999;48.808;9.182;2023-02-15T13:23:32;23.40;;;19.47;;
146;SDS011;45999;48.808;9.182;2023-02-15T13:26:00;26.03;;;19.73;;
146;SDS011;45999;48.808;9.182;2023-02-15T13:28:40;24.53;;;19.40;;
146;SDS011;45999;48.808;9.182;2023-02-15T13:31:15;23.47;;;18.90;;
146;SDS011;45999;48.808;9.182;2023-02-15T13:33:53;24.67;;;18.80;;
146;SDS011;45999;48.808;9.182;2023-02-15T13:41:52;24.13;;;19.30;;
146;SDS011;45999;48.808;9.182;2023-02-15T13:44:37;25.33;;;19.57;;
146;SDS011;45999;48.808;9.182;2023-02-15T13:56:26;23.20;;;20.00;;
146;SDS011;45999;48.808;9.182;2023-02-15T14:07:53;22.57;;;19.77;;
146;SDS011;45999;48.808;9.182;2023-02-15T14:15:44;21.60;;;19.00;;
146;SDS011;45999;48.808;9.182;2023-02-15T14:18:23;25.47;;;18.87;;
146;SDS011;45999;48.808;9.182;2023-02-15T14:29:41;19.90;;;17.40;;
146;SDS011;45999;48.808;9.182;2023-02-15T14:32:23;25.23;;;18.50;;
146;SDS011;45999;48.808;9.182;2023-02-15T14:34:56;22.90;;;17.10;;
146;SDS011;45999;48.808;9.182;2023-02-15T14:37:27;22.10;;;17.17;;
146;SDS011;45999;48.808;9.182;2023-02-15T14:40:08;21.13;;;16.90;;
146;SDS011;45999;48.808;9.182;2023-02-15T14:45:38;23.53;;;15.93;;
146;SDS011;45999;48.808;9.182;2023-02-15T14:48:11;28.73;;;17.03;;
146;SDS011;45999;48.808;9.182;2023-02-15T14:50:46;18.17;;;14.33;;
146;SDS011;45999;48.808;9.182;2023-02-15T14:58:54;17.53;;;12.73;;
146;SDS011;45999;48.808;9.182;2023-02-15T15:01:26;19.53;;;14.20;;
146;SDS011;45999;48.808;9.182;2023-02-15T15:03:55;16.90;;;13.57;;
146;SDS011;45999;48.808;9.182;2023-02-15T15:06:27;17.57;;;14.33;;
146;SDS011;45999;48.808;9.182;2023-02-15T15:08:58;18.30;;;13.70;;
146;SDS011;45999;48.808;9.182;2023-02-15T15:11:39;20.10;;;14.50;;
146;SDS011;45999;48.808;9.182;2023-02-15T15:14:09;22.13;;;15.93;;
146;SDS011;45999;48.808;9.182;2023-02-15T15:19:03;16.27;;;14.13;;
146;SDS011;45999;48.808;9.182;2023-02-15T15:28:03;20.90;;;14.03;;
146;SDS011;45999;48.808;9.182;2023-02-15T15:40:57;18.37;;;14.53;;
146;SDS011;45999;48.808;9.182;2023-02-15T15:49:38;16.60;;;13.93;;
146;SDS011;45999;48.808;9.182;2023-02-15T15:52:14;17.03;;;13.10;;
146;SDS011;45999;48.808;9.182;2023-02-15T15:54:43;16.60;;;13.40;;
146;SDS011;45999;48.808;9.182;2023-02-15T16:03:47;19.63;;;13.73;;
146;SDS011;45999;48.808;9.182;2023-02-15T16:06:02;24.10;;;15.77;;
146;SDS011;45999;48.808;9.182;2023-02-15T16:08:29;21.13;;;15.13;;
146;SDS011;45999;48.808;9.182;2023-02-15T16:11:24;22.63;;;16.17;;
146;SDS011;45999;48.808;9.182;2023-02-15T16:13:53;22.27;;;17.40;;
146;SDS011;45999;48.808;9.182;2023-02-15T16:16:23;22.67;;;17.17;;
146;SDS011;45999;48.808;9.182;2023-02-15T16:18:53;24.67;;;17.87;;
146;SDS011;45999;48.808;9.182;2023-02-15T16:21:23;26.53;;;17.90;;
146;SDS011;45999;48.808;9.182;2023-02-15T16:29:28;21.07;;;17.60;;
146;SDS011;45999;48.808;9.182;2023-02-15T16:32:00;23.47;;;18.47;;
146;SDS011;45999;48.808;9.182;2023-02-15T16:34:32;27.33;;;19.17;;
146;SDS011;45999;48.808;9.182;2023-02-15T16:37:14;27.40;;;18.37;;
146;SDS011;45999;48.808;9.182;2023-02-15T16:39:46;26.53;;;18.57;;
146;SDS011;45999;48.808;9.182;2023-02-15T16:42:14;24.53;;;19.20;;
146;SDS011;45999;48.808;9.182;2023-02-15T16:44:41;26.87;;;19.47;;
146;SDS011;45999;48.808;9.182;2023-02-15T16:47:12;26.03;;;18.57;;
146;SDS011;45999;48.808;9.182;2023-02-15T16:49:46;28.07;;;19.57;;
146;SDS011;45999;48.808;9.182;2023-02-15T16:52:18;23.80;;;19.40;;
146;SDS011;45999;48.808;9.182;2023-02-15T16:54:48;23.07;;;18.83;;
146;SDS011;45999;48.808;9.182;2023-02-15T16:57:23;25.77;;;19.80;;
146;SDS011;45999;48.808;9.182;2023-02-15T16:59:54;29.83;;;20.43;;
146;SDS011;45999;48.808;9.182;2023-02-15T17:02:24;27.97;;;19.80;;
146;SDS011;45999;48.808;9.182;2023-02-15T17:08:25;27.03;;;20.73;;
146;SDS011;45999;48.808;9.182;2023-02-15T17:10:39;27.13;;;20.03;;
146;SDS011;45999;48.808;9.182;2023-02-15T17:13:15;24.77;;;19.87;;
146;SDS011;45999;48.808;9.182;2023-02-15T17:18:33;26.70;;;20.57;;
146;SDS011;45999;48.808;9.182;2023-02-15T17:23:49;24.80;;;20.20;;
146;SDS011;45999;48.808;9.182;2023-02-15T17:26:19;27.00;;;19.50;;
146;SDS011;45999;48.808;9.182;2023-02-15T17:28:55;27.10;;;21.30;;
146;SDS011;45999;48.808;9.182;2023-02-15T17:31:26;28.60;;;20.70;;
146;SDS011;45999;48.808;9.182;2023-02-15T17:33:56;24.53;;;19.57;;
146;SDS011;45999;48.808;9.182;2023-02-15T17:36:24;25.03;;;20.50;;
146;SDS011;45999;48.808;9.182;2023-02-15T17:43:50;28.57;;;22.27;;
146;SDS011;45999;48.808;9.182;2023-02-15T17:46:17;26.07;;;21.97;;
146;SDS011;45999;48.808;9.182;2023-02-15T17:48:45;29.23;;;23.13;;
146;SDS011;45999;48.808;9.182;2023-02-15T17:51:13;28.33;;;22.03;;
146;SDS011;45999;48.808;9.182;2023-02-15T17:53:40;28.93;;;22.77;;
146;SDS011;45999;48.808;9.182;2023-02-15T17:56:27;27.27;;;21.37;;
146;SDS011;45999;48.808;9.182;2023-02-15T17:58:53;29.60;;;21.47;;
146;SDS011;45999;48.808;9.182;2023-02-15T18:01:19;25.60;;;21.30;;
146;SDS011;45999;48.808;9.182;2023-02-15T18:04:04;23.90;;;20.87;;
146;SDS011;45999;48.808;9.182;2023-02-15T18:06:53;31.03;;;21.77;;
146;SDS011;45999;48.808;9.182;2023-02-15T18:09:37;28.73;;;21.90;;
146;SDS011;45999;48.808;9.182;2023-02-15T18:12:25;27.47;;;21.30;;
146;SDS011;45999;48.808;9.182;2023-02-15T18:14:53;27.27;;;21.50;;
146;SDS011;45999;48.808;9.182;2023-02-15T18:17:28;26.57;;;21.70;;
146;SDS011;45999;48.808;9.182;2023-02-15T18:19:58;26.33;;;19.83;;
146;SDS011;45999;48.808;9.182;2023-02-15T18:22:29;26.70;;;20.40;;
146;SDS011;45999;48.808;9.182;2023-02-15T18:24:56;29.10;;;21.63;;
146;SDS011;45999;48.808;9.182;2023-02-15T18:27:23;30.53;;;22.33;;
146;SDS011;45999;48.808;9.182;2023-02-15T18:29:50;30.73;;;22.33;;
146;SDS011;45999;48.808;9.182;2023-02-15T18:32:18;28.00;;;22.03;;
146;SDS011;45999;48.808;9.182;2023-02-15T18:34:56;28.17;;;21.03;;
146;SDS011;45999;48.808;9.182;2023-02-15T18:37:24;29.57;;;21.10;;
146;SDS011;45999;48.808;9.182;2023-02-15T18:39:55;26.47;;;21.23;;
146;SDS011;45999;48.808;9.182;2023-02-15T18:42:29;27.67;;;20.60;;